Time;durP1;ratioP1;P1;durP2;ratioP2;P2;SDS_P1;SDS_P2;PMS_P1;PMS_P2;Temp;Humidity;BMP_temperature;BMP_pressure;BME280_temperature;BME280_humidity;BME280_pressure;Samples;Min_cycle;Max_cycle;Signal;HPM_P1;HPM_P2
2024/04/21 00:02:13;;;;;;;3.28;1.95;;;6.80;75.60;;;;;;5418980;26;20232;-77
2024/04/21 00:04:42;;;;;;;8.85;2.58;;;6.80;75.10;;;;;;5419682;26;20220;-76
2024/04/21 00:07:10;;;;;;;2.42;1.15;;;6.80;74.80;;;;;;5418843;26;20213;-76
2024/04/21 00:09:37;;;;;;;4.75;1.60;;;6.80;74.40;;;;;;5419488;26;20252;-76
2024/04/21 00:12:06;;;;;;;2.35;1.20;;;6.80;74.40;;;;;;5418846;26;20228;-76
2024/04/21 00:14:32;;;;;;;2.55;1.45;;;6.80;74.70;;;;;;5419162;26;20216;-76
2024/04/21 00:17:00;;;;;;;2.30;1.08;;;6.80;74.50;;;;;;5419165;26;20314;-77
2024/04/21 00:19:32;;;;;;;2.45;1.05;;;6.80;74.70;;;;;;5419009;26;20590;-76
2024/04/21 00:22:03;;;;;;;2.40;1.50;;;6.80;75.50;;;;;;5418652;26;20749;-75
2024/04/21 00:24:30;;;;;;;2.85;1.30;;;6.80;75.50;;;;;;5418848;26;20546;-77
2024/04/21 00:27:00;;;;;;;2.20;1.25;;;6.80;75.40;;;;;;5418573;26;20232;-77
2024/04/21 00:29:26;;;;;;;2.10;0.90;;;6.80;74.80;;;;;;5418905;26;20251;-76
2024/04/21 00:31:54;;;;;;;2.30;1.10;;;6.70;73.70;;;;;;5418806;26;20547;-76
2024/04/21 00:34:20;;;;;;;2.30;1.30;;;6.70;74.40;;;;;;5418984;26;20267;-76
2024/04/21 00:36:49;;;;;;;2.08;0.98;;;6.70;73.90;;;;;;5418254;26;20246;-77
2024/04/21 00:39:18;;;;;;;2.40;1.30;;;6.60;74.80;;;;;;5418781;26;20213;-77
2024/04/21 00:41:47;;;;;;;2.88;1.00;;;6.60;75.80;;;;;;5419486;26;20212;-76
2024/04/21 00:44:13;;;;;;;2.20;1.25;;;6.60;75.30;;;;;;5418553;26;20247;-76
2024/04/21 00:46:44;;;;;;;2.90;1.57;;;6.60;74.30;;;;;;5418339;26;20292;-76
2024/04/21 00:49:11;;;;;;;2.03;1.00;;;6.60;74.40;;;;;;5418796;26;20569;-75
2024/04/21 00:51:42;;;;;;;2.10;1.20;;;6.60;73.50;;;;;;5419119;26;20220;-75
2024/04/21 00:54:09;;;;;;;2.08;1.00;;;6.50;74.50;;;;;;5418728;26;20302;-75
2024/04/21 00:56:41;;;;;;;2.55;1.40;;;6.50;74.70;;;;;;5417318;26;20267;-76
2024/04/21 00:59:10;;;;;;;2.10;1.30;;;6.40;75.10;;;;;;5419068;26;20224;-76
2024/04/21 01:01:38;;;;;;;2.10;1.30;;;6.40;75.20;;;;;;5418222;26;20255;-76
2024/04/21 01:04:05;;;;;;;2.40;1.67;;;6.40;75.60;;;;;;5418030;26;20776;-76
2024/04/21 01:06:34;;;;;;;2.42;1.45;;;6.40;75.80;;;;;;5418286;26;20212;-76
2024/04/21 01:09:00;;;;;;;2.00;0.90;;;6.40;76.30;;;;;;5418550;26;20216;-76
2024/04/21 01:11:28;;;;;;;2.05;1.20;;;6.40;75.90;;;;;;5418373;26;20532;-76
2024/04/21 01:13:57;;;;;;;2.40;1.10;;;6.40;76.40;;;;;;5417963;26;20678;-76
2024/04/21 01:16:26;;;;;;;2.08;0.90;;;6.40;75.40;;;;;;5418879;26;20213;-77
2024/04/21 01:18:54;;;;;;;2.22;1.30;;;6.30;76.70;;;;;;5418382;26;20217;-77
2024/04/21 01:21:23;;;;;;;2.42;1.00;;;6.40;77.20;;;;;;5417849;26;20220;-76
2024/04/21 01:23:52;;;;;;;2.25;1.08;;;6.30;76.80;;;;;;5417906;26;20776;-76
2024/04/21 01:26:20;;;;;;;2.40;1.05;;;6.30;77.30;;;;;;5418161;26;20263;-76
2024/04/21 01:28:46;;;;;;;2.00;0.90;;;6.30;76.20;;;;;;5418090;26;20259;-77
2024/04/21 01:31:15;;;;;;;2.63;1.20;;;6.30;75.80;;;;;;5418129;26;20258;-76
2024/04/21 01:33:41;;;;;;;6.22;1.40;;;6.30;76.40;;;;;;5417698;26;20634;-74
2024/04/21 01:36:10;;;;;;;2.63;1.10;;;6.30;76.00;;;;;;5418007;26;20216;-76
2024/04/21 01:38:36;;;;;;;2.33;1.27;;;6.30;76.20;;;;;;5418286;26;20220;-75
2024/04/21 01:41:07;;;;;;;2.72;1.40;;;6.20;78.10;;;;;;5417867;26;20216;-77
2024/04/21 01:43:34;;;;;;;2.20;0.90;;;6.20;78.10;;;;;;5417388;26;20228;-75
2024/04/21 01:46:02;;;;;;;2.53;1.50;;;6.20;77.60;;;;;;5418030;26;20229;-77
2024/04/21 01:48:28;;;;;;;2.78;1.25;;;6.10;78.30;;;;;;5417734;26;20213;-75
2024/04/21 01:50:59;;;;;;;2.53;1.17;;;6.20;80.30;;;;;;5417040;26;20232;-76
2024/04/21 01:53:25;;;;;;;2.30;1.30;;;6.20;79.40;;;;;;5417860;26;20277;-76
2024/04/21 01:55:55;;;;;;;2.50;1.80;;;6.20;79.60;;;;;;5418026;26;20734;-76
2024/04/21 01:58:24;;;;;;;2.60;1.35;;;6.20;79.40;;;;;;5418184;26;20224;-76
2024/04/21 02:00:52;;;;;;;2.60;1.20;;;6.20;77.70;;;;;;5417261;26;20232;-77
2024/04/21 02:03:20;;;;;;;2.58;1.70;;;6.20;78.40;;;;;;5417813;26;20217;-78
2024/04/21 02:05:49;;;;;;;2.78;1.67;;;6.30;78.80;;;;;;5417757;26;20288;-77
2024/04/21 02:08:15;;;;;;;2.60;1.52;;;6.30;78.70;;;;;;5417069;26;20596;-77
2024/04/21 02:10:43;;;;;;;2.40;1.30;;;6.30;78.60;;;;;;5417439;26;20271;-76
2024/04/21 02:13:10;;;;;;;2.85;1.50;;;6.30;78.60;;;;;;5416564;26;20768;-75
2024/04/21 02:15:42;;;;;;;2.25;1.38;;;6.30;77.60;;;;;;5417735;26;20258;-75
2024/04/21 02:18:08;;;;;;;2.55;1.55;;;6.20;76.00;;;;;;5417842;26;20216;-76
2024/04/21 02:20:37;;;;;;;2.20;1.40;;;6.20;76.70;;;;;;5416964;26;20279;-77
2024/04/21 02:23:03;;;;;;;3.13;1.40;;;6.10;77.80;;;;;;5417302;26;20216;-77
2024/04/21 02:25:32;;;;;;;2.70;1.65;;;6.10;78.70;;;;;;5417397;26;20258;-77
2024/04/21 02:27:58;;;;;;;2.50;1.35;;;6.10;79.10;;;;;;5417332;26;20342;-76
2024/04/21 02:30:26;;;;;;;3.22;2.35;;;6.00;79.10;;;;;;5416316;26;20228;-77
2024/04/21 02:32:55;;;;;;;3.33;2.60;;;6.10;78.20;;;;;;5415694;26;20232;-76
2024/04/21 02:35:24;;;;;;;3.92;2.78;;;6.10;79.10;;;;;;5417201;26;20251;-76
2024/04/21 02:37:50;;;;;;;2.85;1.80;;;6.10;79.40;;;;;;5416850;26;20221;-77
2024/04/21 02:40:19;;;;;;;2.72;1.90;;;6.20;79.00;;;;;;5416533;26;20232;-76
2024/04/21 02:42:47;;;;;;;3.50;1.90;;;6.20;78.80;;;;;;5416889;26;20554;-77
2024/04/21 02:45:15;;;;;;;2.85;1.90;;;6.20;78.10;;;;;;5416579;26;20232;-77
2024/04/21 02:47:41;;;;;;;2.85;1.85;;;6.20;78.70;;;;;;5416983;26;20646;-76
2024/04/21 02:50:13;;;;;;;3.50;1.90;;;6.20;78.90;;;;;;5416937;26;20217;-77
2024/04/21 02:52:39;;;;;;;2.83;1.83;;;6.20;78.00;;;;;;5381670;26;20217;-77
2024/04/21 02:55:08;;;;;;;4.97;2.00;;;6.20;78.30;;;;;;5382326;26;20289;-76
2024/04/21 02:57:34;;;;;;;3.55;1.70;;;6.20;78.90;;;;;;5381151;26;20699;-75
2024/04/21 03:00:03;;;;;;;3.80;2.25;;;6.20;78.90;;;;;;5381328;26;20220;-74
2024/04/21 03:02:29;;;;;;;4.05;1.80;;;6.20;79.20;;;;;;5415422;26;20229;-76
2024/04/21 03:04:59;;;;;;;3.80;2.40;;;6.20;79.00;;;;;;5416570;26;20747;-74
2024/04/21 03:07:28;;;;;;;4.35;2.10;;;6.30;79.00;;;;;;5416610;26;20567;-75
2024/04/21 03:09:57;;;;;;;3.67;1.77;;;6.20;78.40;;;;;;5415528;26;20244;-75
2024/04/21 03:12:23;;;;;;;3.53;2.15;;;6.20;78.40;;;;;;5416221;26;20228;-77
2024/04/21 03:14:51;;;;;;;3.40;2.03;;;6.30;78.60;;;;;;5416507;26;20224;-76
2024/04/21 03:17:20;;;;;;;3.10;2.28;;;6.30;78.50;;;;;;5416750;26;20217;-75
2024/04/21 03:19:50;;;;;;;3.17;2.20;;;6.30;78.20;;;;;;5416372;26;20213;-75
2024/04/21 03:22:18;;;;;;;3.30;2.20;;;6.30;77.90;;;;;;5415926;26;20232;-76
2024/04/21 03:24:49;;;;;;;3.50;2.33;;;6.30;77.70;;;;;;5418454;26;20267;-76
2024/04/21 03:27:15;;;;;;;3.50;2.30;;;6.30;77.70;;;;;;5420135;26;20216;-75
2024/04/21 03:29:44;;;;;;;4.85;2.15;;;6.20;77.30;;;;;;5418849;26;20228;-76
2024/04/21 03:32:10;;;;;;;3.95;2.20;;;6.30;77.50;;;;;;5419548;26;20259;-75
2024/04/21 03:34:40;;;;;;;3.87;1.90;;;6.30;77.30;;;;;;5419659;26;20216;-77
2024/04/21 03:37:09;;;;;;;3.35;2.10;;;6.30;77.50;;;;;;5420004;26;20454;-77
2024/04/21 03:39:38;;;;;;;3.33;2.10;;;6.30;77.10;;;;;;5419784;26;20752;-76
2024/04/21 03:42:09;;;;;;;3.25;2.40;;;6.30;77.30;;;;;;5419342;26;20714;-77
2024/04/21 03:44:38;;;;;;;3.65;2.25;;;6.30;76.90;;;;;;5416122;26;20468;-77
2024/04/21 03:47:04;;;;;;;3.28;2.30;;;6.30;78.00;;;;;;5417918;26;20259;-77
2024/04/21 03:49:33;;;;;;;3.20;2.20;;;6.30;77.20;;;;;;5418242;26;20234;-76
2024/04/21 03:51:59;;;;;;;3.30;2.28;;;6.30;77.00;;;;;;5419462;26;20216;-76
2024/04/21 03:54:28;;;;;;;3.60;2.60;;;6.30;77.20;;;;;;5419357;26;20236;-77
2024/04/21 03:56:54;;;;;;;3.00;2.15;;;6.30;76.90;;;;;;5419220;26;20224;-77
2024/04/21 03:59:26;;;;;;;2.88;2.03;;;6.30;76.70;;;;;;5419777;26;20549;-76
2024/04/21 04:01:53;;;;;;;2.90;1.92;;;6.40;75.50;;;;;;5418964;26;20228;-77
2024/04/21 04:04:21;;;;;;;3.17;2.05;;;6.30;75.40;;;;;;5419046;26;20597;-77
2024/04/21 04:06:48;;;;;;;2.85;1.80;;;6.20;76.70;;;;;;5419476;26;20679;-76
2024/04/21 04:09:16;;;;;;;3.42;1.95;;;6.20;77.50;;;;;;5420014;26;20216;-75
2024/04/21 04:11:44;;;;;;;2.90;2.20;;;6.20;77.70;;;;;;5419516;26;20576;-77
2024/04/21 04:14:14;;;;;;;5.78;2.20;;;6.20;77.40;;;;;;5418984;26;20232;-76
2024/04/21 04:16:42;;;;;;;2.88;1.88;;;6.20;77.20;;;;;;5419644;26;20212;-76
2024/04/21 04:19:13;;;;;;;3.20;2.10;;;6.20;76.90;;;;;;5419323;26;20320;-77
2024/04/21 04:21:39;;;;;;;2.78;1.60;;;6.20;77.20;;;;;;5419475;26;20737;-77
2024/04/21 04:24:08;;;;;;;3.70;2.30;;;6.20;77.90;;;;;;5417685;26;20259;-76
2024/04/21 04:26:34;;;;;;;3.50;2.85;;;6.20;77.50;;;;;;5419513;26;20709;-76
2024/04/21 04:29:03;;;;;;;4.78;2.15;;;6.30;77.60;;;;;;5419279;26;20220;-76
2024/04/21 04:31:29;;;;;;;3.80;2.63;;;6.30;77.10;;;;;;5418821;26;20555;-76
2024/04/21 04:34:00;;;;;;;5.32;2.95;;;6.30;76.90;;;;;;5418277;26;20439;-75
2024/04/21 04:36:26;;;;;;;4.15;3.20;;;6.30;77.40;;;;;;5418062;26;20212;-76
2024/04/21 04:38:55;;;;;;;4.55;2.97;;;6.30;77.90;;;;;;5417709;26;20558;-76
2024/04/21 04:41:21;;;;;;;3.72;2.58;;;6.30;76.30;;;;;;5418432;26;20216;-76
2024/04/21 04:43:50;;;;;;;3.80;2.72;;;6.20;76.10;;;;;;5418371;26;20294;-76
2024/04/21 04:46:16;;;;;;;3.95;2.42;;;6.20;76.30;;;;;;5418762;26;20320;-76
2024/04/21 04:48:45;;;;;;;4.15;2.85;;;6.20;75.50;;;;;;5418087;26;20232;-77
2024/04/21 04:51:14;;;;;;;4.63;2.75;;;6.20;76.10;;;;;;5418339;26;20255;-77
2024/04/21 04:53:42;;;;;;;3.80;2.92;;;6.20;75.50;;;;;;5418923;26;20220;-76
2024/04/21 04:56:10;;;;;;;3.42;2.70;;;6.20;75.20;;;;;;5418617;26;20216;-76
2024/04/21 04:58:39;;;;;;;4.78;3.58;;;6.10;75.80;;;;;;5418172;26;20233;-76
2024/04/21 05:01:07;;;;;;;3.25;2.38;;;6.00;75.70;;;;;;5418468;26;20244;-76
2024/04/21 05:03:35;;;;;;;4.15;2.95;;;6.10;75.70;;;;;;5418402;26;20275;-76
2024/04/21 05:06:03;;;;;;;3.58;2.65;;;6.00;76.90;;;;;;5418252;26;20532;-76
2024/04/21 05:08:35;;;;;;;4.65;3.42;;;6.00;76.70;;;;;;5417673;26;20232;-78
2024/04/21 05:11:01;;;;;;;4.60;3.35;;;6.10;77.50;;;;;;5418207;26;20744;-77
2024/04/21 05:13:32;;;;;;;3.60;3.00;;;6.10;78.00;;;;;;5418441;26;20220;-77
2024/04/21 05:15:58;;;;;;;3.90;2.75;;;6.20;75.90;;;;;;5417549;26;20216;-76
2024/04/21 05:18:26;;;;;;;4.07;2.80;;;6.10;76.40;;;;;;5417429;26;20365;-77
2024/04/21 05:20:52;;;;;;;4.70;3.35;;;6.20;77.20;;;;;;5415961;26;20275;-76
2024/04/21 05:23:21;;;;;;;5.10;2.60;;;6.20;77.30;;;;;;5418712;26;20224;-77
2024/04/21 05:25:50;;;;;;;3.88;3.10;;;6.20;76.90;;;;;;5417577;26;20213;-77
2024/04/21 05:28:18;;;;;;;4.50;2.97;;;6.20;76.60;;;;;;5417477;26;20657;-77
2024/04/21 05:30:49;;;;;;;4.53;3.20;;;6.20;76.90;;;;;;5418066;26;20212;-75
2024/04/21 05:33:17;;;;;;;4.72;3.55;;;6.20;77.60;;;;;;5417900;26;20690;-75
2024/04/21 05:35:44;;;;;;;4.95;3.65;;;6.20;77.70;;;;;;5418198;26;20213;-76
2024/04/21 05:38:12;;;;;;;4.40;3.40;;;6.30;77.60;;;;;;5416858;26;20773;-76
2024/04/21 05:40:39;;;;;;;3.80;2.95;;;6.30;77.90;;;;;;5418120;26;20220;-76
2024/04/21 05:43:10;;;;;;;4.13;2.97;;;6.40;76.80;;;;;;5417535;26;20258;-76
2024/04/21 05:45:36;;;;;;;3.65;2.70;;;6.40;76.80;;;;;;5417065;26;20255;-77
2024/04/21 05:48:06;;;;;;;3.75;2.53;;;6.40;76.00;;;;;;5416238;26;20287;-76
2024/04/21 05:50:32;;;;;;;3.67;2.70;;;6.40;75.10;;;;;;5417295;26;20646;-77
2024/04/21 05:53:01;;;;;;;4.90;2.95;;;6.40;75.10;;;;;;5417307;26;20391;-76
2024/04/21 05:55:27;;;;;;;3.97;2.63;;;6.40;75.20;;;;;;5417333;26;20212;-76
2024/04/21 05:57:59;;;;;;;6.70;3.78;;;6.40;75.50;;;;;;5417160;26;20300;-76
2024/04/21 06:00:27;;;;;;;29.85;14.73;;;6.50;75.50;;;;;;5417855;26;20255;-76
2024/04/21 06:02:56;;;;;;;14.95;8.57;;;6.40;75.20;;;;;;5417133;26;20255;-77
2024/04/21 06:05:22;;;;;;;5.25;3.20;;;6.40;76.20;;;;;;5417393;26;20220;-76
2024/04/21 06:07:51;;;;;;;4.70;3.27;;;6.40;75.60;;;;;;5416423;26;20236;-81
2024/04/21 06:10:28;;;;;;;5.05;3.50;;;6.40;76.60;;;;;;5390057;26;20846;-75
2024/04/21 06:12:57;;;;;;;12.50;7.53;;;6.40;75.90;;;;;;5405247;26;20236;-77
2024/04/21 06:15:24;;;;;;;7.45;3.85;;;6.40;76.40;;;;;;5397782;26;20229;-76
2024/04/21 06:17:55;;;;;;;5.40;3.22;;;6.40;76.40;;;;;;5415389;26;20340;-75
2024/04/21 06:20:23;;;;;;;4.82;3.97;;;6.40;76.60;;;;;;5416068;26;20702;-76
2024/04/21 06:22:53;;;;;;;6.63;5.00;;;6.40;77.70;;;;;;5416306;26;20255;-76
2024/04/21 06:25:21;;;;;;;4.93;3.88;;;6.40;77.20;;;;;;5415732;26;20216;-77
2024/04/21 06:27:52;;;;;;;5.78;4.20;;;6.50;78.30;;;;;;5413731;26;20446;-77
2024/04/21 06:30:18;;;;;;;5.68;2.88;;;6.50;78.80;;;;;;5394196;26;20709;-77
2024/04/21 06:32:48;;;;;;;3.90;2.90;;;6.60;77.70;;;;;;5415848;26;20221;-77
2024/04/21 06:35:17;;;;;;;5.47;3.60;;;6.60;77.50;;;;;;5415760;26;20581;-75
2024/04/21 06:37:45;;;;;;;5.38;4.75;;;6.70;77.30;;;;;;5415679;26;20240;-77
2024/04/21 06:40:11;;;;;;;4.13;3.20;;;6.60;75.00;;;;;;5416168;26;20221;-76
2024/04/21 06:42:40;;;;;;;5.38;4.03;;;6.60;76.50;;;;;;5415162;26;20271;-76
2024/04/21 06:45:07;;;;;;;4.97;3.85;;;6.60;76.80;;;;;;5415938;26;20690;-77
2024/04/21 06:47:35;;;;;;;6.75;4.90;;;6.60;78.10;;;;;;5415496;26;20589;-76
2024/04/21 06:50:01;;;;;;;4.97;3.15;;;6.70;78.30;;;;;;5415798;26;20220;-77
2024/04/21 06:52:33;;;;;;;4.32;3.13;;;6.80;77.70;;;;;;5412963;26;20275;-75
2024/04/21 06:54:59;;;;;;;4.00;2.83;;;6.80;77.30;;;;;;5414837;26;20228;-76
2024/04/21 06:57:27;;;;;;;4.82;3.45;;;6.90;77.80;;;;;;5414830;26;20233;-76
2024/04/21 06:59:54;;;;;;;4.25;3.40;;;7.00;76.90;;;;;;5414669;26;20228;-76
2024/04/21 07:02:22;;;;;;;3.75;2.83;;;7.10;75.20;;;;;;5415241;26;20232;-76
2024/04/21 07:04:48;;;;;;;3.78;2.40;;;7.20;74.50;;;;;;5415832;26;20275;-74
2024/04/21 07:07:17;;;;;;;3.72;2.60;;;7.20;74.20;;;;;;5415988;26;20667;-76
2024/04/21 07:09:46;;;;;;;3.10;2.03;;;7.30;73.80;;;;;;5403613;26;20548;-76
2024/04/21 07:12:15;;;;;;;4.70;2.80;;;7.30;73.90;;;;;;5409466;26;20370;-77
2024/04/21 07:14:41;;;;;;;4.40;2.40;;;7.40;73.90;;;;;;5414715;26;20324;-76
2024/04/21 07:17:10;;;;;;;4.15;2.58;;;7.50;75.20;;;;;;5414848;26;20280;-77
2024/04/21 07:19:36;;;;;;;3.45;2.75;;;7.70;76.90;;;;;;5415040;26;20533;-76
2024/04/21 07:22:05;;;;;;;3.08;2.08;;;7.80;72.00;;;;;;5414879;26;20232;-75
2024/04/21 07:24:31;;;;;;;4.95;2.45;;;7.60;70.70;;;;;;5414355;26;20228;-76
2024/04/21 07:27:02;;;;;;;3.63;2.42;;;7.60;73.40;;;;;;5414712;26;20275;-75
2024/04/21 07:29:28;;;;;;;3.85;2.90;;;7.70;74.90;;;;;;5414295;26;20582;-77
2024/04/21 07:31:57;;;;;;;3.25;2.03;;;7.80;74.60;;;;;;5413958;26;20239;-75
2024/04/21 07:34:23;;;;;;;2.47;1.35;;;7.90;75.10;;;;;;5414093;26;20761;-74
2024/04/21 07:36:52;;;;;;;4.38;1.98;;;8.10;70.60;;;;;;5413714;26;20761;-76
2024/04/21 07:39:21;;;;;;;4.28;2.85;;;8.10;68.00;;;;;;5412877;26;20232;-75
2024/04/21 07:41:49;;;;;;;3.20;2.13;;;8.10;69.60;;;;;;5414205;26;20325;-76
2024/04/21 07:44:18;;;;;;;3.55;1.67;;;8.20;70.30;;;;;;5413984;26;20232;-76
2024/04/21 07:46:47;;;;;;;3.95;1.50;;;8.30;70.30;;;;;;5413862;26;20268;-75
2024/04/21 07:49:13;;;;;;;3.70;2.28;;;8.40;69.80;;;;;;5413123;26;20527;-75
2024/04/21 07:51:42;;;;;;;4.15;1.15;;;8.50;71.50;;;;;;5414660;26;20532;-75
2024/04/21 07:54:08;;;;;;;3.10;1.45;;;8.60;69.50;;;;;;5413555;26;20225;-77
2024/04/21 07:56:37;;;;;;;2.10;1.05;;;8.80;65.60;;;;;;5414142;26;20267;-77
2024/04/21 07:59:04;;;;;;;3.47;2.20;;;8.80;64.50;;;;;;5414406;26;20749;-75
2024/04/21 08:01:35;;;;;;;2.60;1.50;;;8.80;64.20;;;;;;5414166;26;20232;-76
2024/04/21 08:04:01;;;;;;;5.72;1.42;;;8.90;65.90;;;;;;5413894;26;20263;-75
2024/04/21 08:06:30;;;;;;;4.22;2.80;;;9.00;66.40;;;;;;5413436;26;20232;-79
2024/04/21 08:08:56;;;;;;;3.70;2.00;;;9.20;66.80;;;;;;5412713;26;20328;-76
2024/04/21 08:11:25;;;;;;;3.53;1.33;;;9.30;63.80;;;;;;5415231;26;20240;-76
2024/04/21 08:13:51;;;;;;;3.40;1.75;;;9.50;62.80;;;;;;5414262;26;20461;-76
2024/04/21 08:16:20;;;;;;;2.80;1.80;;;9.60;60.40;;;;;;5417354;26;20232;-74
2024/04/21 08:19:06;;;;;;;2.90;1.50;;;9.60;62.60;;;;;;5416233;26;20228;-76
2024/04/21 08:21:35;;;;;;;3.15;1.70;;;9.70;63.10;;;;;;5416796;26;20652;-76
2024/04/21 08:24:01;;;;;;;3.13;1.50;;;9.80;61.80;;;;;;5417330;26;20221;-75
2024/04/21 08:26:30;;;;;;;2.33;1.50;;;9.70;59.80;;;;;;5407767;26;20240;-76
2024/04/21 08:28:56;;;;;;;2.70;1.30;;;9.60;60.00;;;;;;5416418;26;20295;-76
2024/04/21 08:31:25;;;;;;;2.97;2.00;;;9.60;62.90;;;;;;5417195;26;20337;-76
2024/04/21 08:33:55;;;;;;;2.40;1.30;;;9.50;61.80;;;;;;5416567;26;20283;-77
2024/04/21 08:36:26;;;;;;;2.70;1.40;;;9.50;62.70;;;;;;5417389;26;20224;-76
2024/04/21 08:38:52;;;;;;;2.40;1.10;;;9.30;62.60;;;;;;5417487;26;20220;-74
2024/04/21 08:41:24;;;;;;;2.60;1.45;;;9.30;63.40;;;;;;5417184;26;20713;-76
2024/04/21 08:43:51;;;;;;;2.90;2.03;;;9.30;65.20;;;;;;5415546;26;20232;-76
2024/04/21 08:46:21;;;;;;;3.25;1.60;;;9.30;63.50;;;;;;5417201;26;20264;-76
2024/04/21 08:48:49;;;;;;;3.80;1.38;;;9.30;63.00;;;;;;5416958;26;20259;-75
2024/04/21 08:51:20;;;;;;;3.72;1.42;;;9.30;62.50;;;;;;5415975;26;20296;-76
2024/04/21 08:53:46;;;;;;;3.22;1.27;;;9.20;64.60;;;;;;5416226;26;20228;-75
2024/04/21 08:56:21;;;;;;;2.20;1.20;;;9.20;64.40;;;;;;5416423;26;20296;-77
2024/04/21 08:58:50;;;;;;;3.08;1.30;;;9.20;62.10;;;;;;5417117;26;20266;-77
2024/04/21 09:01:20;;;;;;;3.75;1.67;;;9.00;62.90;;;;;;5416418;26;20737;-76
2024/04/21 09:03:49;;;;;;;2.40;1.35;;;9.10;66.40;;;;;;5416729;26;20229;-77
2024/04/21 09:06:26;;;;;;;2.42;1.42;;;9.20;64.90;;;;;;5417204;26;20263;-76
2024/04/21 09:08:53;;;;;;;1.98;1.00;;;9.20;62.70;;;;;;5417030;26;20267;-77
2024/04/21 09:11:24;;;;;;;2.53;1.25;;;9.30;61.80;;;;;;5416633;26;20233;-78
2024/04/21 09:13:50;;;;;;;2.53;1.20;;;9.10;63.40;;;;;;5417239;26;20216;-77
2024/04/21 09:16:19;;;;;;;2.65;1.70;;;9.10;63.90;;;;;;5417024;26;20584;-76
2024/04/21 09:18:46;;;;;;;2.85;1.40;;;9.10;63.20;;;;;;5416870;26;20271;-76
2024/04/21 09:21:14;;;;;;;2.40;0.93;;;9.10;64.70;;;;;;5416360;26;20229;-77
2024/04/21 09:23:45;;;;;;;2.25;1.00;;;8.90;62.40;;;;;;5416379;26;20232;-81
2024/04/21 09:26:15;;;;;;;2.80;1.23;;;8.60;63.30;;;;;;5416984;26;20747;-75
2024/04/21 09:28:42;;;;;;;2.15;1.10;;;8.40;65.50;;;;;;5416509;26;20267;-77
2024/04/21 09:31:12;;;;;;;2.55;1.00;;;7.90;65.70;;;;;;5416030;26;20240;-78
2024/04/21 09:33:38;;;;;;;4.10;1.42;;;7.90;68.30;;;;;;5416904;26;20694;-76
2024/04/21 09:36:08;;;;;;;3.78;1.63;;;7.70;67.10;;;;;;5416592;26;20220;-76
2024/04/21 09:38:40;;;;;;;2.50;1.40;;;7.60;67.60;;;;;;5416284;26;20232;-77
2024/04/21 09:41:15;;;;;;;4.00;1.90;;;7.60;68.70;;;;;;5416403;26;20591;-79
2024/04/21 09:43:43;;;;;;;3.33;1.30;;;7.50;67.90;;;;;;5413641;26;20232;-75
2024/04/21 09:46:14;;;;;;;3.40;1.50;;;7.30;68.20;;;;;;5415108;26;20279;-76
2024/04/21 09:48:42;;;;;;;4.93;3.05;;;7.20;68.90;;;;;;5416625;26;20284;-76
2024/04/21 09:51:12;;;;;;;2.58;1.17;;;7.20;70.00;;;;;;5415046;26;20659;-78
2024/04/21 09:53:40;;;;;;;6.30;3.17;;;7.20;69.60;;;;;;5414761;26;20232;-76
2024/04/21 09:56:23;;;;;;;2.30;1.10;;;7.10;67.90;;;;;;5416345;26;20489;-76
2024/04/21 09:58:53;;;;;;;7.15;1.58;;;6.90;68.60;;;;;;5380369;26;20560;-75
2024/04/21 10:01:28;;;;;;;2.42;1.30;;;6.90;70.10;;;;;;5380639;26;20233;-77
2024/04/21 10:03:58;;;;;;;2.70;2.28;;;6.90;71.00;;;;;;5380944;26;20244;-78
2024/04/21 10:06:28;;;;;;;3.58;1.40;;;7.00;69.20;;;;;;5381264;26;20262;-77
2024/04/21 10:08:57;;;;;;;4.63;1.95;;;7.00;69.70;;;;;;5380439;26;20225;-75
2024/04/21 10:11:28;;;;;;;2.45;1.50;;;6.90;70.60;;;;;;5379345;26;20342;-77
2024/04/21 10:13:58;;;;;;;3.30;1.40;;;6.90;70.40;;;;;;5380007;26;20281;-77
2024/04/21 10:16:28;;;;;;;6.45;3.70;;;6.70;70.70;;;;;;5380189;26;20277;-76
2024/04/21 10:19:01;;;;;;;7.80;4.55;;;6.70;70.90;;;;;;5380057;26;20465;-78
2024/04/21 10:21:30;;;;;;;2.63;1.60;;;6.80;71.60;;;;;;5378681;26;20229;-77
2024/04/21 10:23:56;;;;;;;3.10;1.88;;;6.80;71.00;;;;;;5380591;26;20221;-75
2024/04/21 10:26:30;;;;;;;5.40;2.25;;;6.90;72.10;;;;;;5380430;26;20217;-76
2024/04/21 10:29:07;;;;;;;2.70;1.55;;;7.10;72.80;;;;;;5358104;26;20225;-76
2024/04/21 10:31:35;;;;;;;2.97;1.80;;;7.30;71.80;;;;;;5367171;26;20234;-76
2024/04/21 10:34:05;;;;;;;3.55;1.77;;;7.60;70.80;;;;;;5379037;26;20723;-76
2024/04/21 10:36:42;;;;;;;4.55;2.03;;;7.80;69.70;;;;;;5380029;26;20260;-77
2024/04/21 10:39:08;;;;;;;5.90;2.40;;;8.10;69.60;;;;;;5379928;26;20718;-74
2024/04/21 10:41:46;;;;;;;4.78;1.88;;;8.30;65.90;;;;;;5379649;26;20362;-76
2024/04/21 10:44:12;;;;;;;3.90;2.00;;;8.40;65.90;;;;;;5379602;26;20301;-78
2024/04/21 10:46:41;;;;;;;3.05;1.98;;;8.70;66.30;;;;;;5379944;26;20233;-76
2024/04/21 10:49:08;;;;;;;3.20;1.70;;;8.90;65.00;;;;;;5380155;26;20518;-78
2024/04/21 10:51:38;;;;;;;3.63;2.22;;;9.10;66.30;;;;;;5379569;26;20218;-76
2024/04/21 10:54:07;;;;;;;3.55;1.50;;;9.40;65.80;;;;;;5377254;26;20237;-75
2024/04/21 10:56:40;;;;;;;2.20;1.35;;;9.60;63.50;;;;;;5385971;26;20232;-76
2024/04/21 10:59:07;;;;;;;5.82;1.45;;;9.70;63.00;;;;;;5414555;26;20221;-76
2024/04/21 11:01:36;;;;;;;2.10;0.90;;;9.70;64.30;;;;;;5407090;26;20267;-76
2024/04/21 11:04:03;;;;;;;2.15;1.02;;;9.70;62.00;;;;;;5412826;26;20243;-77
2024/04/21 11:06:33;;;;;;;2.00;0.80;;;9.70;63.00;;;;;;5413183;26;20274;-76
2024/04/21 11:08:59;;;;;;;2.10;1.17;;;9.60;62.90;;;;;;5412120;26;20232;-78
2024/04/21 11:11:29;;;;;;;1.90;0.77;;;9.60;63.60;;;;;;5412611;26;20236;-76
2024/04/21 11:13:58;;;;;;;1.80;0.70;;;9.70;62.70;;;;;;5414465;26;20270;-76
2024/04/21 11:16:30;;;;;;;2.00;1.00;;;9.70;63.20;;;;;;5408817;26;20275;-76
2024/04/21 11:18:56;;;;;;;2.78;1.05;;;9.70;63.30;;;;;;5411258;26;20229;-75
2024/04/21 11:21:25;;;;;;;2.70;1.95;;;9.70;62.90;;;;;;5414243;26;20240;-74
2024/04/21 11:23:52;;;;;;;2.00;1.08;;;9.80;64.90;;;;;;5413082;26;20546;-75
2024/04/21 11:26:24;;;;;;;2.75;1.48;;;9.90;67.80;;;;;;5413583;26;20546;-76
2024/04/21 11:28:49;;;;;;;2.20;1.10;;;10.10;63.80;;;;;;5410120;26;20236;-75
2024/04/21 11:31:22;;;;;;;2.20;0.83;;;10.20;65.00;;;;;;5409521;26;20266;-75
2024/04/21 11:33:48;;;;;;;1.90;0.85;;;10.40;63.00;;;;;;5414111;26;20897;-79
2024/04/21 11:36:20;;;;;;;1.98;1.00;;;10.40;61.80;;;;;;5412171;26;20276;-76
2024/04/21 11:38:49;;;;;;;3.08;0.80;;;10.30;61.50;;;;;;5413472;26;20384;-75
2024/04/21 11:41:17;;;;;;;2.30;1.23;;;10.30;61.20;;;;;;5411881;26;21077;-76
2024/04/21 11:43:44;;;;;;;2.72;1.25;;;10.20;60.30;;;;;;5414771;26;20248;-75
2024/04/21 11:46:13;;;;;;;2.10;1.30;;;10.20;61.40;;;;;;5414289;26;20349;-75
2024/04/21 11:48:50;;;;;;;2.45;1.13;;;10.10;60.80;;;;;;5417916;26;20259;-76
2024/04/21 11:51:19;;;;;;;3.88;1.42;;;10.10;62.80;;;;;;5417485;26;20224;-75
2024/04/21 11:53:46;;;;;;;3.47;1.20;;;10.10;63.40;;;;;;5417132;26;20639;-77
2024/04/21 11:56:17;;;;;;;3.58;1.48;;;10.20;64.30;;;;;;5417559;26;20622;-76
2024/04/21 11:58:45;;;;;;;2.33;1.23;;;10.30;63.80;;;;;;5414689;26;20582;-75
2024/04/21 12:01:13;;;;;;;2.50;1.63;;;10.30;63.40;;;;;;5417293;26;20232;-76
2024/04/21 12:03:42;;;;;;;2.40;1.42;;;10.40;62.10;;;;;;5418097;26;20212;-75
2024/04/21 12:06:11;;;;;;;3.30;1.30;;;10.40;60.20;;;;;;5417981;26;20258;-76
2024/04/21 12:08:37;;;;;;;1.92;0.73;;;10.30;60.10;;;;;;5418196;26;20216;-77
2024/04/21 12:11:06;;;;;;;2.77;1.30;;;10.20;59.90;;;;;;5415067;26;20225;-76
2024/04/21 12:13:33;;;;;;;1.90;0.80;;;10.20;60.10;;;;;;5415825;26;20465;-77
2024/04/21 12:16:02;;;;;;;2.30;1.20;;;10.10;62.10;;;;;;5417622;26;20224;-76
2024/04/21 12:18:28;;;;;;;2.03;0.90;;;10.10;60.40;;;;;;5417601;26;20220;-76
2024/04/21 12:21:06;;;;;;;1.93;0.80;;;10.10;60.40;;;;;;5417597;26;20287;-76
2024/04/21 12:23:32;;;;;;;2.20;1.25;;;10.00;61.70;;;;;;5418196;26;20601;-76
2024/04/21 12:26:01;;;;;;;3.43;1.20;;;9.90;62.80;;;;;;5417859;26;20232;-76
2024/04/21 12:28:28;;;;;;;2.40;1.23;;;9.80;63.50;;;;;;5417862;26;20455;-75
2024/04/21 12:31:02;;;;;;;2.53;0.93;;;9.80;63.20;;;;;;5415589;26;20217;-75
2024/04/21 12:33:32;;;;;;;2.70;1.13;;;9.90;63.40;;;;;;5417988;26;20231;-77
2024/04/21 12:36:03;;;;;;;2.67;1.25;;;9.80;63.50;;;;;;5416512;26;20236;-77
2024/04/21 12:38:29;;;;;;;4.35;1.45;;;9.90;64.20;;;;;;5417837;26;20216;-75
2024/04/21 12:40:58;;;;;;;2.22;1.05;;;10.00;64.10;;;;;;5417714;26;20279;-75
2024/04/21 12:43:24;;;;;;;2.40;1.30;;;10.10;66.00;;;;;;5417511;26;20255;-76
2024/04/21 12:45:54;;;;;;;2.40;1.30;;;10.40;66.40;;;;;;5416960;26;20644;-76
2024/04/21 12:48:24;;;;;;;2.10;0.98;;;10.60;66.10;;;;;;5417821;26;20216;-75
2024/04/21 12:50:54;;;;;;;2.67;1.10;;;10.70;64.60;;;;;;5415993;26;20240;-76
2024/04/21 12:53:25;;;;;;;2.60;1.35;;;10.80;64.00;;;;;;5416459;26;20722;-79
2024/04/21 12:55:54;;;;;;;2.67;1.23;;;11.10;64.00;;;;;;5416123;26;20221;-75
2024/04/21 12:58:21;;;;;;;2.07;0.80;;;11.30;65.70;;;;;;5411782;26;20596;-75
2024/04/21 13:00:51;;;;;;;2.97;1.53;;;11.60;64.60;;;;;;5416848;26;20517;-77
2024/04/21 13:03:17;;;;;;;2.10;0.90;;;11.80;59.20;;;;;;5416570;26;20476;-74